Time;durP1;ratioP1;P1;durP2;ratioP2;P2;SDS_P1;SDS_P2;PMS_P1;PMS_P2;Temp;Humidity;BMP_temperature;BMP_pressure;BME280_temperature;BME280_humidity;BME280_pressure;Samples;Min_cycle;Max_cycle;Signal;HPM_P1;HPM_P2
2021/07/07 00:02:12;;;;;;;1.50;0.90;;;;;;;12.89;88.32;90717.91;4974368;28;20030;-85
2021/07/07 00:04:47;;;;;;;3.10;0.80;;;;;;;12.87;88.51;90720.16;4975397;28;20019;-85
2021/07/07 00:07:33;;;;;;;1.85;0.90;;;;;;;12.76;89.48;90723.66;4975680;28;20026;-86
2021/07/07 00:10:10;;;;;;;1.17;0.80;;;;;;;12.72;89.68;90702.69;4974632;28;20515;-86
2021/07/07 00:12:47;;;;;;;1.02;0.70;;;;;;;12.75;89.88;90694.13;4974616;28;20019;-86
2021/07/07 00:15:27;;;;;;;1.15;0.85;;;;;;;12.67;90.06;90682.03;4974240;28;20042;-86
2021/07/07 00:18:14;;;;;;;1.05;0.75;;;;;;;12.67;89.95;90674.19;4974722;28;20045;-86
2021/07/07 00:20:53;;;;;;;1.38;0.80;;;;;;;12.68;90.07;90688.78;4973906;28;20028;-86
2021/07/07 00:23:33;;;;;;;1.00;0.60;;;;;;;12.69;89.96;90708.59;4976875;28;20039;-86
2021/07/07 00:26:16;;;;;;;1.38;0.75;;;;;;;12.63;90.43;90718.56;4974818;28;20129;-86
2021/07/07 00:28:50;;;;;;;1.33;0.65;;;;;;;12.62;89.68;90711.09;4974557;28;20033;-86
2021/07/07 00:31:24;;;;;;;1.23;0.73;;;;;;;12.67;89.66;90723.88;4957937;28;20033;-86
2021/07/07 00:34:04;;;;;;;1.33;0.70;;;;;;;12.60;90.08;90723.72;4973830;28;20022;-86
2021/07/07 00:36:40;;;;;;;1.15;0.70;;;;;;;12.63;90.14;90717.81;4973675;28;20022;-86
2021/07/07 00:39:15;;;;;;;1.00;0.73;;;;;;;12.63;89.86;90712.59;4958902;28;20101;-85
2021/07/07 00:41:55;;;;;;;1.20;0.68;;;;;;;12.63;90.45;90715.94;4973747;28;20027;-86
2021/07/07 00:44:38;;;;;;;2.47;1.02;;;;;;;12.54;90.71;90704.94;4973757;28;20018;-86
2021/07/07 00:47:18;;;;;;;0.90;0.80;;;;;;;12.49;90.82;90714.94;4973673;28;20493;-86
2021/07/07 00:49:58;;;;;;;0.93;0.80;;;;;;;12.49;91.15;90714.94;4971277;28;20512;-86
2021/07/07 00:52:37;;;;;;;1.10;0.80;;;;;;;12.55;90.84;90716.19;4969838;28;20031;-85
2021/07/07 00:55:15;;;;;;;1.50;0.50;;;;;;;12.56;90.89;90715.06;4973425;28;20031;-86
2021/07/07 00:57:54;;;;;;;1.23;0.80;;;;;;;12.54;90.84;90715.41;4958272;28;20385;-85
2021/07/07 01:00:34;;;;;;;1.27;0.82;;;;;;;12.52;91.12;90711.63;4960737;28;20027;-86
2021/07/07 01:03:16;;;;;;;2.38;0.70;;;;;;;12.52;90.99;90715.00;4954298;29;20485;-86
2021/07/07 01:05:56;;;;;;;1.98;0.73;;;;;;;12.56;90.69;90709.84;4939472;29;20493;-86
2021/07/07 01:08:35;;;;;;;1.75;0.80;;;;;;;12.68;90.04;90710.47;4954206;29;20047;-85
2021/07/07 01:11:13;;;;;;;4.20;0.70;;;;;;;12.57;90.74;90700.88;4955109;28;20023;-86
2021/07/07 01:13:39;;;;;;;1.77;0.70;;;;;;;12.62;90.72;90685.69;4938396;29;20497;-85
2021/07/07 01:16:14;;;;;;;1.15;0.80;;;;;;;12.63;90.24;90676.00;4972465;28;20031;-86
2021/07/07 01:18:52;;;;;;;;;;;;;;;12.52;90.90;90669.81;4973939;28;20055;-83
2021/07/07 01:21:28;;;;;;;1.73;1.00;;;;;;;12.37;92.03;90681.84;4974125;28;20010;-86
2021/07/07 01:24:02;;;;;;;3.92;1.48;;;;;;;12.37;91.65;90697.53;4958151;28;20022;-86
2021/07/07 01:26:41;;;;;;;1.67;1.00;;;;;;;12.51;90.74;90697.03;4973255;28;20404;-85
2021/07/07 01:29:18;;;;;;;1.45;0.85;;;;;;;12.44;91.26;90701.03;4958208;28;20035;-86
2021/07/07 01:31:58;;;;;;;3.42;1.00;;;;;;;12.32;92.55;90700.41;4957493;28;20038;-85
2021/07/07 01:34:35;;;;;;;3.25;1.08;;;;;;;12.34;92.21;90701.59;4973068;28;20156;-86
2021/07/07 01:37:14;;;;;;;1.58;1.15;;;;;;;12.37;91.79;90708.00;4973471;28;20125;-86
2021/07/07 01:39:55;;;;;;;1.05;0.80;;;;;;;12.39;91.86;90698.69;4972503;28;20484;-85
2021/07/07 01:42:23;;;;;;;0.82;0.70;;;;;;;12.48;91.92;90710.81;4957852;28;20516;-86
2021/07/07 01:44:56;;;;;;;1.88;1.00;;;;;;;12.52;91.92;90701.94;4972568;28;20033;-86
2021/07/07 01:47:36;;;;;;;1.73;1.00;;;;;;;12.53;91.31;90706.03;4973068;28;20096;-86
2021/07/07 01:50:16;;;;;;;1.00;0.80;;;;;;;12.53;91.57;90702.69;4972372;28;20489;-86
2021/07/07 01:52:53;;;;;;;1.60;1.10;;;;;;;12.44;92.25;90705.50;4957053;28;20054;-86
2021/07/07 01:55:32;;;;;;;1.10;0.90;;;;;;;12.47;92.65;90717.88;4972897;28;20030;-86
2021/07/07 01:58:07;;;;;;;1.77;1.50;;;;;;;12.41;92.20;90720.00;4973691;28;20031;-86
2021/07/07 02:00:44;;;;;;;1.63;1.00;;;;;;;12.47;92.59;90717.88;4972173;28;20026;-86
2021/07/07 02:03:24;;;;;;;1.80;1.10;;;;;;;12.47;92.75;90714.50;4972430;28;20026;-85
2021/07/07 02:06:07;;;;;;;2.55;1.10;;;;;;;12.50;92.59;90721.66;4956936;28;20051;-86
2021/07/07 02:08:46;;;;;;;3.10;1.10;;;;;;;12.54;92.06;90725.84;4972365;28;20027;-86
2021/07/07 02:11:24;;;;;;;2.92;1.40;;;;;;;12.49;92.23;90714.94;4972060;28;20018;-86
2021/07/07 02:14:04;;;;;;;2.50;1.02;;;;;;;12.50;92.60;90708.59;4969318;28;20036;-85
2021/07/07 02:16:44;;;;;;;1.08;0.98;;;;;;;12.46;92.37;90713.75;4953959;28;20494;-86
2021/07/07 02:19:24;;;;;;;1.52;1.00;;;;;;;12.41;92.41;90693.88;4938011;29;20492;-84
2021/07/07 02:22:00;;;;;;;1.20;0.90;;;;;;;12.43;92.28;90690.91;4954478;28;20437;-86
2021/07/07 02:24:38;;;;;;;1.83;1.05;;;;;;;12.48;92.36;90695.13;4937716;29;20023;-86
2021/07/07 02:27:18;;;;;;;3.42;1.08;;;;;;;12.49;92.08;90697.38;4969591;28;20516;-86
2021/07/07 02:29:50;;;;;;;1.60;1.05;;;;;;;12.43;92.13;90698.75;4972875;28;20106;-86
2021/07/07 02:32:26;;;;;;;1.45;1.20;;;;;;;12.48;91.89;90708.19;4972316;28;20035;-86
2021/07/07 02:35:05;;;;;;;1.25;1.05;;;;;;;12.49;92.01;90714.94;4957169;28;20026;-86
2021/07/07 02:37:39;;;;;;;2.42;1.20;;;;;;;12.41;92.36;90708.81;4971624;28;20033;-86
2021/07/07 02:40:31;;;;;;;2.67;0.98;;;;;;;12.40;92.41;90704.66;4971516;28;20051;-84
2021/07/07 02:43:10;;;;;;;1.33;1.10;;;;;;;12.40;92.56;90709.88;4972428;28;20031;-86
2021/07/07 02:45:44;;;;;;;1.98;1.13;;;;;;;12.41;92.63;90704.34;4957105;28;20493;-86
2021/07/07 02:48:10;;;;;;;;;;;;;;;12.40;92.57;90700.22;5046961;23;20509;-86
2021/07/07 02:50:48;;;;;;;4.70;1.10;;;;;;;12.52;91.99;90701.94;4970047;28;20449;-85
2021/07/07 02:53:27;;;;;;;3.95;1.10;;;;;;;12.47;91.85;90710.03;4980002;28;20165;-86
2021/07/07 02:56:04;;;;;;;1.52;1.00;;;;;;;12.47;92.32;90715.25;4997056;28;20121;-85
2021/07/07 02:58:41;;;;;;;2.17;1.20;;;;;;;12.46;92.54;90720.84;4996976;28;20102;-86
2021/07/07 03:01:20;;;;;;;1.58;0.93;;;;;;;12.50;92.30;90713.81;4997571;28;20022;-85
2021/07/07 03:03:52;;;;;;;1.75;0.73;;;;;;;12.48;92.33;90708.19;4979421;28;20038;-86
2021/07/07 03:06:31;;;;;;;5.55;1.00;;;;;;;12.48;92.41;90703.72;4998232;28;20034;-86
2021/07/07 03:09:10;;;;;;;3.58;1.02;;;;;;;12.49;92.51;90710.47;4997548;28;20027;-85
2021/07/07 03:11:42;;;;;;;1.83;1.40;;;;;;;12.46;92.46;90708.53;4980953;28;20022;-85
2021/07/07 03:14:21;;;;;;;0.98;0.85;;;;;;;12.47;92.47;90710.03;4977883;28;20412;-84
2021/07/07 03:17:02;;;;;;;2.60;1.00;;;;;;;12.51;92.34;90702.25;4961339;28;20023;-84
2021/07/07 03:19:39;;;;;;;1.25;1.00;;;;;;;12.50;92.50;90711.22;4961500;28;20385;-86
2021/07/07 03:22:16;;;;;;;1.40;1.10;;;;;;;12.51;92.32;90721.34;4961732;28;20052;-86
2021/07/07 03:24:54;;;;;;;2.03;1.02;;;;;;;12.51;92.20;90725.78;4976518;28;20027;-86
2021/07/07 03:27:28;;;;;;;1.75;0.98;;;;;;;12.53;92.45;90718.38;4944776;28;20096;-85
2021/07/07 03:30:08;;;;;;;1.40;0.90;;;;;;;12.50;92.26;90729.50;4944580;28;20031;-85
2021/07/07 03:32:42;;;;;;;2.35;0.80;;;;;;;12.55;92.08;90734.47;4962063;28;20037;-86
2021/07/07 03:35:24;;;;;;;1.40;0.77;;;;;;;12.59;91.84;90741.28;4945415;28;20027;-84
2021/07/07 03:37:58;;;;;;;2.03;1.00;;;;;;;12.57;92.12;90740.84;4978292;28;20066;-86
2021/07/07 03:40:41;;;;;;;2.78;1.00;;;;;;;12.55;91.99;90740.44;4982072;28;20022;-85
2021/07/07 03:43:19;;;;;;;3.65;1.20;;;;;;;12.56;92.14;90730.75;4976190;28;20035;-85
2021/07/07 03:45:55;;;;;;;1.73;1.30;;;;;;;12.52;92.33;90741.13;4999753;28;20400;-86
2021/07/07 03:48:32;;;;;;;1.45;1.20;;;;;;;12.52;92.38;90748.97;4984516;28;20567;-86
2021/07/07 03:51:13;;;;;;;2.50;1.23;;;;;;;12.55;92.45;90742.31;4945455;29;20132;-85
2021/07/07 03:53:49;;;;;;;2.08;1.25;;;;;;;12.47;92.34;90748.47;4963075;29;20047;-85
2021/07/07 03:56:29;;;;;;;2.38;0.93;;;;;;;12.49;92.00;90741.81;4961993;29;20031;-87
2021/07/07 03:59:06;;;;;;;1.48;1.10;;;;;;;12.50;91.96;90745.19;4945350;29;20027;-86
2021/07/07 04:01:49;;;;;;;2.08;1.00;;;;;;;12.58;91.72;90746.84;4944979;29;20015;-86
2021/07/07 04:04:27;;;;;;;2.13;1.10;;;;;;;12.54;91.73;90746.00;4977640;28;20031;-86
2021/07/07 04:07:00;;;;;;;1.38;1.08;;;;;;;12.55;92.00;90763.97;4975751;28;20081;-86
2021/07/07 04:09:38;;;;;;;1.67;0.90;;;;;;;12.49;91.18;90769.81;4945416;29;20058;-87
2021/07/07 04:12:18;;;;;;;0.90;0.70;;;;;;;12.44;90.23;90770.84;4962309;29;20027;-86
2021/07/07 04:14:58;;;;;;;1.67;0.80;;;;;;;12.68;88.83;90777.66;4960417;29;20077;-86
2021/07/07 04:17:37;;;;;;;1.02;0.70;;;;;;;12.46;89.62;90775.72;4944799;29;20023;-85
2021/07/07 04:20:11;;;;;;;1.30;0.68;;;;;;;12.42;90.13;90768.56;4959146;29;20019;-86
2021/07/07 04:22:46;;;;;;;1.58;0.70;;;;;;;12.38;91.27;90775.56;4960649;28;20027;-85
2021/07/07 04:25:19;;;;;;;;;;;;;;;12.49;88.32;90780.28;4949721;28;20421;-85
2021/07/07 04:27:53;;;;;;;1.25;0.57;;;;;;;12.46;88.62;90770.50;4995262;28;19914;-86
2021/07/07 04:30:32;;;;;;;0.90;0.73;;;;;;;12.35;89.29;90771.03;4980763;28;20397;-87
2021/07/07 04:33:05;;;;;;;1.88;0.90;;;;;;;12.33;89.53;90783.69;4979814;28;20053;-86
2021/07/07 04:35:41;;;;;;;3.67;0.93;;;;;;;12.27;88.08;90784.28;4947849;28;20122;-86
2021/07/07 04:38:19;;;;;;;1.33;0.88;;;;;;;12.11;86.64;90794.75;4974446;28;20022;-86
2021/07/07 04:40:59;;;;;;;2.30;0.80;;;;;;;12.08;85.30;90795.44;4966363;28;20054;-86
2021/07/07 04:43:39;;;;;;;2.55;0.70;;;;;;;12.19;82.60;90791.19;5000837;28;20081;-85
2021/07/07 04:46:19;;;;;;;3.17;1.00;;;;;;;12.07;84.30;90786.09;5000616;28;20033;-86
2021/07/07 04:48:53;;;;;;;2.08;0.68;;;;;;;11.92;82.47;90783.16;4999243;28;20120;-86
2021/07/07 04:51:29;;;;;;;1.23;0.80;;;;;;;11.82;85.87;90770.59;4982084;28;20019;-86
2021/07/07 04:54:04;;;;;;;3.75;0.93;;;;;;;11.98;83.95;90785.50;4998897;28;20022;-86
2021/07/07 04:56:43;;;;;;;2.08;1.05;;;;;;;11.86;85.69;90787.13;4982772;28;20030;-86
2021/07/07 04:59:26;;;;;;;2.75;1.10;;;;;;;11.76;86.69;90786.84;4981978;28;20133;-84
2021/07/07 05:02:05;;;;;;;4.15;1.17;;;;;;;11.63;87.74;90778.34;4999551;28;20084;-86
2021/07/07 05:04:44;;;;;;;2.33;0.95;;;;;;;11.64;87.16;90795.53;4966908;28;20024;-85
2021/07/07 05:07:25;;;;;;;3.58;1.02;;;;;;;11.48;88.09;90792.88;4965941;28;20033;-86
2021/07/07 05:10:04;;;;;;;6.15;1.20;;;;;;;11.42;88.12;90794.25;4981408;28;20022;-85
2021/07/07 05:12:40;;;;;;;6.20;1.00;;;;;;;11.43;88.46;90780.84;4978054;28;20113;-86
2021/07/07 05:15:19;;;;;;;3.65;1.05;;;;;;;11.47;88.54;90786.91;4965366;28;20035;-85
2021/07/07 05:17:57;;;;;;;3.67;0.80;;;;;;;11.49;88.17;90795.19;4942539;29;20035;-86
2021/07/07 05:20:30;;;;;;;2.85;1.00;;;;;;;11.52;88.30;90800.81;4943814;29;20478;-85
2021/07/07 05:23:06;;;;;;;2.83;1.10;;;;;;;11.41;89.95;90793.50;4961759;28;20035;-87
2021/07/07 05:25:45;;;;;;;2.05;1.10;;;;;;;11.52;88.49;90793.75;4945222;29;20031;-86
2021/07/07 05:28:16;;;;;;;4.88;1.60;;;;;;;11.42;89.48;90779.34;4928028;29;20027;-86
2021/07/07 05:30:54;;;;;;;12.18;2.72;;;;;;;11.39;89.38;90777.41;4959828;29;20031;-86
2021/07/07 05:33:33;;;;;;;1.60;1.05;;;;;;;11.52;88.58;90791.16;4969094;28;20027;-86
2021/07/07 05:36:23;;;;;;;2.35;1.48;;;;;;;11.47;89.22;90789.53;4993716;28;20034;-85
2021/07/07 05:38:58;;;;;;;4.93;2.10;;;;;;;11.54;88.90;90793.41;4979292;28;20029;-86
2021/07/07 05:41:29;;;;;;;3.15;1.20;;;;;;;11.50;87.46;90803.75;4962908;28;20019;-86
2021/07/07 05:44:05;;;;;;;4.05;1.48;;;;;;;11.47;89.98;90807.78;4962665;28;20031;-85
2021/07/07 05:46:45;;;;;;;5.00;0.98;;;;;;;11.49;88.12;90804.84;4962913;28;20026;-84
2021/07/07 05:49:31;;;;;;;3.03;1.13;;;;;;;11.55;87.08;90800.88;4979165;28;20052;-86
2021/07/07 05:52:07;;;;;;;2.75;0.88;;;;;;;11.63;86.19;90805.22;4971265;28;20328;-86
2021/07/07 05:54:44;;;;;;;5.95;1.10;;;;;;;11.59;87.05;90814.81;4979966;28;20054;-85
2021/07/07 05:57:19;;;;;;;3.17;0.90;;;;;;;11.61;87.54;90819.69;4995818;28;20019;-85
2021/07/07 05:59:46;;;;;;;3.00;1.10;;;;;;;11.47;88.65;90828.66;4963928;28;20026;-85
2021/07/07 06:02:22;;;;;;;2.33;0.98;;;;;;;11.47;88.65;90828.66;4997191;28;20037;-86
2021/07/07 06:05:03;;;;;;;3.10;1.25;;;;;;;11.44;88.49;90826.72;4997251;28;20038;-85
2021/07/07 06:07:43;;;;;;;2.65;1.20;;;;;;;11.50;87.60;90824.63;4996220;28;20022;-85
2021/07/07 06:10:18;;;;;;;3.00;1.35;;;;;;;11.48;88.40;90838.03;4980268;28;20026;-85
2021/07/07 06:12:55;;;;;;;2.47;0.93;;;;;;;11.55;87.98;90849.72;4964014;28;20402;-84
2021/07/07 06:15:38;;;;;;;1.48;0.90;;;;;;;11.66;85.83;90840.28;4956851;29;20031;-85
2021/07/07 06:18:19;;;;;;;4.57;1.30;;;;;;;11.52;86.64;90837.34;4971824;28;20022;-86
2021/07/07 06:20:46;;;;;;;6.47;1.50;;;;;;;11.42;86.92;90839.34;4954318;28;20023;-85
2021/07/07 06:23:14;;;;;;;4.70;1.27;;;;;;;11.49;87.39;90847.38;4939651;29;20464;-84
2021/07/07 06:25:46;;;;;;;2.85;1.10;;;;;;;11.42;87.82;90843.81;4966612;28;20034;-86
2021/07/07 06:28:12;;;;;;;1.80;1.20;;;;;;;11.42;87.40;90838.59;4951114;28;20374;-85
2021/07/07 06:30:45;;;;;;;3.47;1.25;;;;;;;11.55;86.73;90844.50;4960265;28;20022;-87
2021/07/07 06:33:12;;;;;;;2.58;1.20;;;;;;;11.56;87.69;90848.66;4940868;29;20556;-85
2021/07/07 06:35:45;;;;;;;4.30;1.30;;;;;;;11.50;87.63;90848.13;4958196;29;20038;-87
2021/07/07 06:38:11;;;;;;;2.50;1.20;;;;;;;11.52;86.96;90850.38;4958117;29;20023;-86
2021/07/07 06:40:41;;;;;;;3.97;1.52;;;;;;;11.46;86.58;90848.03;4958037;29;20027;-85
2021/07/07 06:43:12;;;;;;;3.08;1.40;;;;;;;11.44;87.83;90850.19;4960467;28;20421;-87
2021/07/07 06:45:37;;;;;;;4.10;1.20;;;;;;;11.59;84.29;90851.34;4977650;28;20437;-86
2021/07/07 06:48:08;;;;;;;2.28;1.20;;;;;;;11.56;85.22;90840.81;4968010;28;20109;-85
2021/07/07 06:50:35;;;;;;;6.97;1.40;;;;;;;11.55;85.73;90847.09;4936178;28;20485;-86
2021/07/07 06:53:01;;;;;;;3.40;1.10;;;;;;;11.66;84.75;90846.31;4964458;28;20049;-86
2021/07/07 06:55:27;;;;;;;3.60;1.40;;;;;;;11.75;84.14;90847.97;4961698;28;20504;-86
2021/07/07 06:57:55;;;;;;;7.57;1.88;;;;;;;11.72;84.74;90850.16;4976704;28;20030;-85
2021/07/07 07:00:22;;;;;;;4.47;1.48;;;;;;;11.73;84.42;90845.69;4978159;28;20023;-86
2021/07/07 07:02:49;;;;;;;5.45;1.20;;;;;;;11.87;84.97;90846.09;4955348;28;20027;-86
2021/07/07 07:05:17;;;;;;;5.43;1.48;;;;;;;11.91;85.05;90846.94;4976093;28;20591;-84
2021/07/07 07:07:43;;;;;;;3.47;1.27;;;;;;;12.08;83.43;90855.50;4941656;29;20023;-86
2021/07/07 07:10:10;;;;;;;3.30;1.27;;;;;;;12.03;85.14;90855.78;4957970;28;20028;-84
2021/07/07 07:12:35;;;;;;;4.28;1.15;;;;;;;11.93;85.86;90865.63;4961117;28;20026;-86
2021/07/07 07:15:06;;;;;;;5.30;1.40;;;;;;;11.88;87.37;90873.72;4958134;28;20026;-87
2021/07/07 07:17:33;;;;;;;4.32;1.60;;;;;;;11.96;87.08;90879.88;4961877;28;20030;-86
2021/07/07 07:20:00;;;;;;;6.05;1.30;;;;;;;11.93;86.71;90889.13;4963088;28;20480;-86
2021/07/07 07:22:26;;;;;;;3.58;1.20;;;;;;;11.91;86.24;90893.94;4950549;28;20037;-86
2021/07/07 07:24:52;;;;;;;2.67;1.38;;;;;;;11.81;87.11;90909.31;4946474;28;20022;-86
2021/07/07 07:27:17;;;;;;;3.80;1.50;;;;;;;11.95;86.48;90896.63;4965386;28;20240;-84
2021/07/07 07:29:44;;;;;;;4.93;1.40;;;;;;;11.80;85.83;90900.72;4963746;28;20035;-87
2021/07/07 07:32:10;;;;;;;6.07;1.50;;;;;;;11.77;85.83;90892.81;4971661;28;20030;-87
2021/07/07 07:34:37;;;;;;;4.70;1.40;;;;;;;11.91;86.46;90896.53;4962628;28;20030;-86
2021/07/07 07:37:06;;;;;;;5.22;1.67;;;;;;;12.16;86.83;90899.00;4979773;28;20037;-87
2021/07/07 07:39:48;;;;;;;4.18;1.65;;;;;;;12.32;86.83;90897.13;4964253;28;20046;-85
2021/07/07 07:42:14;;;;;;;5.07;1.80;;;;;;;12.37;84.95;90894.28;4963525;28;20109;-86
2021/07/07 07:44:42;;;;;;;6.13;1.42;;;;;;;12.46;84.23;90895.94;4962673;28;20023;-86
2021/07/07 07:47:09;;;;;;;7.07;2.20;;;;;;;12.54;82.66;90895.75;4961681;28;20031;-86
2021/07/07 07:49:36;;;;;;;6.43;1.50;;;;;;;12.69;81.66;90896.84;4959889;28;20089;-87
2021/07/07 07:52:02;;;;;;;4.35;1.30;;;;;;;12.77;82.49;90903.75;4985538;28;20027;-84
2021/07/07 07:54:29;;;;;;;6.45;1.55;;;;;;;12.98;81.56;90900.81;4972859;28;20027;-85
2021/07/07 07:56:55;;;;;;;7.00;1.58;;;;;;;13.10;80.49;90892.06;4962383;28;20034;-85
2021/07/07 07:59:21;;;;;;;6.70;1.65;;;;;;;13.36;78.61;90897.50;4984972;28;20027;-85
2021/07/07 08:01:47;;;;;;;4.43;1.60;;;;;;;13.39;78.44;90891.59;4963690;28;20033;-87
2021/07/07 08:04:13;;;;;;;4.15;1.60;;;;;;;13.42;77.25;90899.84;4961534;28;20022;-86
2021/07/07 08:06:39;;;;;;;4.78;1.50;;;;;;;13.54;78.37;90894.47;4955143;28;20457;-86
2021/07/07 08:09:05;;;;;;;3.90;1.50;;;;;;;13.49;76.55;90902.59;4979287;28;20031;-85
2021/07/07 08:11:31;;;;;;;3.90;1.88;;;;;;;13.63;77.73;90900.22;4981460;28;20042;-84
2021/07/07 08:13:56;;;;;;;6.75;1.40;;;;;;;13.81;79.42;90909.16;4962588;28;20497;-86
2021/07/07 08:16:26;;;;;;;4.75;1.70;;;;;;;13.95;78.86;90913.16;4981167;28;20058;-86
2021/07/07 08:18:52;;;;;;;8.95;2.17;;;;;;;13.75;78.57;90899.34;4947873;28;20113;-86
2021/07/07 08:21:19;;;;;;;7.03;2.63;;;;;;;13.78;79.10;90903.84;4967777;28;20114;-85
2021/07/07 08:23:44;;;;;;;6.95;1.88;;;;;;;13.82;79.96;90902.84;4992659;28;20393;-85
2021/07/07 08:26:10;;;;;;;1.90;1.30;;;;;;;13.91;79.07;90914.94;4969813;28;20031;-86
2021/07/07 08:28:35;;;;;;;2.08;1.27;;;;;;;14.01;77.81;90915.13;4964291;28;20033;-87
2021/07/07 08:31:01;;;;;;;4.00;1.45;;;;;;;14.13;78.10;90924.69;4951015;28;20034;-85
2021/07/07 08:33:26;;;;;;;3.60;1.17;;;;;;;14.34;78.33;90930.28;4963537;28;20046;-86
2021/07/07 08:35:52;;;;;;;6.40;1.70;;;;;;;14.48;79.49;90936.84;4964035;28;20085;-86
2021/07/07 08:38:17;;;;;;;4.82;2.15;;;;;;;14.49;80.62;90936.53;4963659;28;20052;-87
2021/07/07 08:40:43;;;;;;;6.30;2.97;;;;;;;14.48;80.35;90923.75;4964406;28;20529;-86
2021/07/07 08:43:09;;;;;;;4.68;2.00;;;;;;;14.45;79.59;90925.22;4962568;28;20341;-86
2021/07/07 08:45:41;;;;;;;4.85;1.50;;;;;;;14.44;76.95;90934.19;4961099;28;20026;-85
2021/07/07 08:48:08;;;;;;;3.00;1.20;;;;;;;14.66;77.32;90931.91;4957155;23;20061;-85
2021/07/07 08:50:35;;;;;;;2.67;1.30;;;;;;;14.79;78.78;90931.38;4954718;28;20027;-87
2021/07/07 08:53:06;;;;;;;5.25;1.95;;;;;;;14.85;77.84;90936.34;4954600;28;20023;-86
2021/07/07 08:55:34;;;;;;;3.83;1.88;;;;;;;14.61;78.16;90927.75;4952153;29;20389;-86
2021/07/07 08:58:01;;;;;;;2.78;1.70;;;;;;;14.70;78.04;90914.38;4927296;28;20403;-86
2021/07/07 09:00:33;;;;;;;3.40;1.55;;;;;;;14.83;78.04;90928.81;4938888;28;20030;-86
2021/07/07 09:03:18;;;;;;;4.75;2.92;;;;;;;14.85;76.95;90947.59;4938947;28;20130;-86
2021/07/07 09:05:47;;;;;;;2.72;1.60;;;;;;;14.88;76.85;90956.63;4951400;28;20039;-86
2021/07/07 09:08:12;;;;;;;5.10;1.40;;;;;;;14.73;78.45;90945.91;4953693;28;20035;-87
2021/07/07 09:10:38;;;;;;;2.60;1.60;;;;;;;14.78;78.22;90947.47;4941234;28;20030;-87
2021/07/07 09:13:12;;;;;;;3.08;1.35;;;;;;;14.72;74.96;90941.75;4938890;28;20030;-86
2021/07/07 09:15:39;;;;;;;3.55;1.60;;;;;;;14.80;77.56;90940.75;4954628;28;20597;-86
2021/07/07 09:18:04;;;;;;;4.45;1.40;;;;;;;14.82;75.62;90927.31;4938568;28;20026;-87
2021/07/07 09:20:38;;;;;;;4.20;1.25;;;;;;;15.13;74.08;90931.47;4954625;28;20019;-87
2021/07/07 09:23:22;;;;;;;;;;;;;;;15.64;76.03;90932.84;4933339;29;20027;-87
2021/07/07 09:25:48;;;;;;;2.10;1.10;;;;;;;15.62;73.02;90935.84;4941663;29;19922;-85
2021/07/07 09:28:19;;;;;;;4.45;1.50;;;;;;;15.62;74.26;90941.09;4935111;29;20027;-86
2021/07/07 09:30:44;;;;;;;7.10;1.30;;;;;;;15.45;74.80;90949.53;4919670;29;20023;-88
2021/07/07 09:33:10;;;;;;;3.72;1.10;;;;;;;15.73;72.47;90949.13;4919193;29;20054;-87
2021/07/07 09:35:35;;;;;;;2.55;1.10;;;;;;;15.76;71.80;90949.19;4919144;29;20027;-87
2021/07/07 09:38:01;;;;;;;3.83;1.35;;;;;;;15.97;71.89;90943.41;4918837;29;20027;-87
2021/07/07 09:40:26;;;;;;;3.33;1.05;;;;;;;16.33;72.57;90945.63;4919004;29;20027;-88
2021/07/07 09:42:52;;;;;;;5.50;1.45;;;;;;;16.32;72.70;90944.09;4920318;29;20027;-87
2021/07/07 09:45:21;;;;;;;3.92;1.20;;;;;;;16.52;70.91;90942.03;4952359;29;20540;-86
2021/07/07 09:49:35;;;;;;;4.53;1.20;;;;;;;16.40;66.73;90951.69;5129938;27;20818;-85
2021/07/07 09:52:02;;;;;;;6.65;1.20;;;;;;;16.37;71.71;90962.94;5129708;28;20035;-85
2021/07/07 09:54:28;;;;;;;5.65;1.40;;;;;;;16.51;69.87;90959.69;5094207;28;20140;-87
2021/07/07 09:56:56;;;;;;;5.00;1.63;;;;;;;16.44;68.17;90957.00;5089384;28;20482;-87
2021/07/07 09:59:22;;;;;;;5.90;1.65;;;;;;;16.46;69.55;90963.38;5069639;28;20022;-86
2021/07/07 10:01:48;;;;;;;5.72;1.90;;;;;;;16.63;69.32;90964.66;5094911;28;20020;-87
2021/07/07 10:04:17;;;;;;;1.88;1.10;;;;;;;16.40;67.76;90962.22;5091455;28;20202;-87
2021/07/07 10:06:42;;;;;;;3.45;1.27;;;;;;;16.54;71.14;90971.34;5090870;28;20547;-86
2021/07/07 10:09:09;;;;;;;2.00;1.10;;;;;;;16.25;69.74;90961.34;5073133;28;20023;-85
2021/07/07 10:11:34;;;;;;;3.30;1.20;;;;;;;16.24;68.72;90959.81;5073617;28;20139;-87
2021/07/07 10:14:00;;;;;;;4.90;1.15;;;;;;;16.36;69.35;90979.06;5073605;28;20472;-87
2021/07/07 10:16:25;;;;;;;5.07;1.45;;;;;;;16.13;70.72;90973.97;5073855;28;20015;-87
2021/07/07 10:18:51;;;;;;;4.15;1.15;;;;;;;16.31;71.78;90974.13;5073418;28;20533;-87
2021/07/07 10:21:16;;;;;;;4.72;1.40;;;;;;;16.20;70.85;90980.03;5073569;28;20038;-87
2021/07/07 10:23:42;;;;;;;4.40;1.30;;;;;;;16.07;69.79;90968.25;5073823;28;20077;-87
2021/07/07 10:26:08;;;;;;;3.40;0.80;;;;;;;16.02;69.16;90968.59;5073217;28;20095;-87
2021/07/07 10:28:34;;;;;;;3.90;1.10;;;;;;;16.19;70.96;90957.50;5090780;28;20086;-87
2021/07/07 10:31:01;;;;;;;2.40;0.88;;;;;;;16.12;69.22;90970.59;5090652;28;20073;-86
2021/07/07 10:33:33;;;;;;;3.38;0.90;;;;;;;16.10;69.35;90964.91;5090365;28;20027;-86
2021/07/07 10:36:20;;;;;;;3.30;0.95;;;;;;;16.32;69.05;90959.88;5091168;28;20022;-86
2021/07/07 10:38:52;;;;;;;2.85;1.00;;;;;;;16.29;70.83;90963.22;5090094;28;20024;-86
2021/07/07 10:41:43;;;;;;;3.70;1.13;;;;;;;16.43;71.46;90964.13;5090374;28;20016;-87
2021/07/07 10:44:13;;;;;;;1.42;1.02;;;;;;;16.38;69.97;90963.69;5073584;28;20117;-86
2021/07/07 10:46:59;;;;;;;1.92;0.85;;;;;;;16.40;71.49;90966.72;5087533;28;20495;-84
2021/07/07 10:49:30;;;;;;;2.08;0.90;;;;;;;16.32;70.25;90971.13;5091133;28;20457;-87
2021/07/07 10:52:00;;;;;;;3.55;1.02;;;;;;;16.40;71.77;90978.00;5090844;28;20495;-88
2021/07/07 10:54:35;;;;;;;4.18;1.10;;;;;;;16.39;70.62;90965.19;5073174;28;20102;-88
2021/07/07 10:57:11;;;;;;;2.53;1.00;;;;;;;16.39;72.67;90967.81;5039287;28;20059;-87
2021/07/07 10:59:49;;;;;;;2.40;0.88;;;;;;;16.28;71.05;90964.34;5071870;28;20719;-86
2021/07/07 11:02:20;;;;;;;2.90;0.90;;;;;;;16.11;72.09;90974.31;5076849;28;20093;-86
2021/07/07 11:04:53;;;;;;;2.42;1.00;;;;;;;16.25;70.64;90971.06;5094528;28;20044;-86
2021/07/07 11:07:41;;;;;;;2.63;0.80;;;;;;;16.17;71.48;90972.88;5060157;28;20111;-84
2021/07/07 11:10:15;;;;;;;1.88;0.90;;;;;;;16.12;72.35;90973.22;5043318;28;20032;-87
2021/07/07 11:12:42;;;;;;;;;;;;;;;16.09;70.52;90973.19;5060989;28;20028;-86
2021/07/07 11:15:24;;;;;;;1.98;0.80;;;;;;;16.36;71.38;90971.16;5076152;28;20376;-87
2021/07/07 11:18:00;;;;;;;2.05;1.00;;;;;;;16.77;71.16;90976.47;5076704;28;20023;-86
2021/07/07 11:20:38;;;;;;;1.25;0.80;;;;;;;17.02;68.62;90968.75;5060410;28;20032;-86
2021/07/07 11:23:10;;;;;;;0.88;0.63;;;;;;;17.18;70.69;90961.34;5062572;28;20024;-86
2021/07/07 11:25:44;;;;;;;1.88;0.93;;;;;;;17.64;69.77;90966.09;5056716;28;20016;-85
2021/07/07 11:28:18;;;;;;;2.00;0.73;;;;;;;17.53;68.58;90965.31;5056992;28;20025;-84
2021/07/07 11:30:45;;;;;;;1.67;0.80;;;;;;;17.64;68.63;90964.22;5039194;28;20037;-86
2021/07/07 11:33:14;;;;;;;2.53;0.85;;;;;;;17.67;67.20;90955.59;5039854;28;20021;-86
2021/07/07 11:35:46;;;;;;;1.27;0.68;;;;;;;18.04;66.80;90962.53;5059655;28;20157;-86
2021/07/07 11:38:21;;;;;;;0.80;0.50;;;;;;;17.99;67.07;90960.25;5043070;28;20056;-86
2021/07/07 11:40:52;;;;;;;1.40;0.70;;;;;;;17.77;67.21;90956.00;5093513;28;20027;-86
2021/07/07 11:43:23;;;;;;;1.20;0.60;;;;;;;17.31;67.72;90959.91;5043277;28;20032;-86
2021/07/07 11:46:00;;;;;;;1.48;0.63;;;;;;;17.26;68.06;90965.53;5059675;28;20020;-86
2021/07/07 11:48:45;;;;;;;2.15;0.70;;;;;;;17.39;67.71;90979.16;5041923;28;20028;-85
2021/07/07 11:51:18;;;;;;;0.70;0.50;;;;;;;17.49;68.12;90975.81;5061196;28;20028;-84
2021/07/07 11:53:46;;;;;;;1.70;0.70;;;;;;;17.72;67.16;90978.19;5058289;28;20117;-86
2021/07/07 11:56:19;;;;;;;2.30;0.50;;;;;;;17.87;66.46;90979.78;5047467;28;20284;-87
2021/07/07 11:58:46;;;;;;;3.25;0.50;;;;;;;17.73;67.49;90979.69;5047892;28;20020;-87
2021/07/07 12:01:19;;;;;;;1.27;0.40;;;;;;;17.84;66.60;90983.16;5054088;28;20481;-87
2021/07/07 12:03:55;;;;;;;1.87;0.50;;;;;;;17.81;65.76;90975.22;5038485;28;20031;-87
2021/07/07 12:06:33;;;;;;;1.52;0.60;;;;;;;17.73;65.58;90977.06;5071383;28;20308;-87